createdAt,value
2023-03-29T00:01:06.787Z,63.36
2023-03-29T00:03:35.090Z,63.81
2023-03-29T00:06:04.164Z,63.62
2023-03-29T00:08:38.112Z,62.83
2023-03-29T00:11:06.348Z,63.59
2023-03-29T00:13:35.074Z,63.24
2023-03-29T00:16:03.404Z,63.75
2023-03-29T00:18:31.458Z,63.28
2023-03-29T00:21:00.612Z,62.95
2023-03-29T00:23:29.246Z,62.70
2023-03-29T00:25:57.627Z,62.95
2023-03-29T00:28:26.108Z,62.79
2023-03-29T00:31:10.822Z,63.30
2023-03-29T00:33:39.906Z,63.15
2023-03-29T00:36:09.161Z,63.49
2023-03-29T00:38:38.094Z,63.66
2023-03-29T00:41:08.067Z,63.37
2023-03-29T00:43:57.236Z,63.21
2023-03-29T00:46:27.389Z,63.61
2023-03-29T00:49:02.003Z,63.63
2023-03-29T00:51:32.091Z,64.10
2023-03-29T00:54:03.754Z,63.94
2023-03-29T00:56:37.283Z,64.04
2023-03-29T00:59:16.472Z,64.22
2023-03-29T01:01:54.803Z,63.87
2023-03-29T01:04:36.361Z,65.48
2023-03-29T01:07:25.867Z,66.54
2023-03-29T01:10:27.703Z,67.27
2023-03-29T01:13:03.897Z,68.94
2023-03-29T01:15:32.242Z,70.85
2023-03-29T01:18:02.177Z,71.38
2023-03-29T01:20:49.190Z,70.79
2023-03-29T01:23:26.984Z,69.83
2023-03-29T01:26:19.886Z,69.75
2023-03-29T01:28:57.988Z,68.99
2023-03-29T01:31:33.149Z,69.36
2023-03-29T01:34:09.619Z,69.59
2023-03-29T01:36:54.916Z,68.76
2023-03-29T01:39:23.076Z,68.06
2023-03-29T01:42:02.305Z,67.24
2023-03-29T01:44:39.849Z,66.14
2023-03-29T01:47:13.854Z,66.21
2023-03-29T01:49:50.582Z,65.37
2023-03-29T01:52:25.575Z,65.81
2023-03-29T01:55:01.060Z,65.96
2023-03-29T01:57:33.224Z,65.50
2023-03-29T02:00:08.250Z,65.32
2023-03-29T02:02:44.878Z,64.00
2023-03-29T02:05:15.392Z,63.74
2023-03-29T02:07:46.077Z,63.82
2023-03-29T02:10:16.474Z,63.79
2023-03-29T02:12:44.697Z,63.74
2023-03-29T02:15:15.954Z,63.38
2023-03-29T02:17:44.449Z,63.12
2023-03-29T02:20:20.638Z,62.42
2023-03-29T02:23:02.261Z,62.97
2023-03-29T02:25:32.702Z,62.88
2023-03-29T02:28:01.986Z,63.43
2023-03-29T02:30:48.550Z,62.73
2023-03-29T02:33:25.292Z,62.11
2023-03-29T02:36:05.281Z,62.57
2023-03-29T02:38:34.916Z,63.08
2023-03-29T02:41:04.212Z,61.43
2023-03-29T02:43:34.758Z,60.90
2023-03-29T02:46:05.276Z,61.84
2023-03-29T02:48:37.185Z,61.85
2023-03-29T02:51:33.415Z,60.83
2023-03-29T02:54:23.516Z,60.48
2023-03-29T02:57:06.679Z,60.16
2023-03-29T02:59:35.314Z,60.50
2023-03-29T03:02:03.486Z,60.35
2023-03-29T03:04:35.499Z,60.53
2023-03-29T03:07:07.555Z,60.87
2023-03-29T03:09:35.853Z,61.08
2023-03-29T03:12:04.207Z,60.53
2023-03-29T03:14:32.888Z,61.26
2023-03-29T03:17:03.904Z,60.28
2023-03-29T03:19:33.225Z,60.09
2023-03-29T03:22:01.253Z,60.34
2023-03-29T03:24:29.583Z,60.63
2023-03-29T03:26:58.853Z,60.27
2023-03-29T03:29:28.599Z,61.11
2023-03-29T03:32:15.486Z,61.71
2023-03-29T03:34:49.923Z,61.76
2023-03-29T03:37:18.291Z,61.45
2023-03-29T03:39:46.880Z,61.17
2023-03-29T03:42:15.527Z,61.81
2023-03-29T03:44:44.981Z,61.82
2023-03-29T03:47:39.648Z,62.06
2023-03-29T03:50:28.706Z,62.39
2023-03-29T03:52:57.413Z,62.46
2023-03-29T03:55:25.838Z,62.38
2023-03-29T03:58:13.244Z,61.63
2023-03-29T04:00:42.696Z,61.88
2023-03-29T04:03:24.289Z,61.55
2023-03-29T04:05:53.790Z,61.71
2023-03-29T04:08:22.781Z,61.03
2023-03-29T04:11:10.728Z,61.69
2023-03-29T04:13:42.321Z,61.70
2023-03-29T04:16:26.587Z,61.37
2023-03-29T04:18:55.009Z,61.92
2023-03-29T04:21:23.634Z,62.15
2023-03-29T04:23:51.660Z,62.02
2023-03-29T04:26:19.827Z,61.86
2023-03-29T04:28:50.934Z,61.50
2023-03-29T04:31:24.096Z,61.37
2023-03-29T04:34:09.840Z,61.42
2023-03-29T04:36:39.132Z,61.28
2023-03-29T04:39:11.397Z,58.41
2023-03-29T04:41:40.502Z,56.16
2023-03-29T04:44:20.653Z,53.98
2023-03-29T04:46:49.226Z,52.66
2023-03-29T04:49:37.986Z,50.83
2023-03-29T04:52:09.350Z,49.03
2023-03-29T04:54:38.639Z,48.31
2023-03-29T04:57:21.088Z,48.21
2023-03-29T05:00:15.151Z,47.26
2023-03-29T05:03:13.563Z,46.28
2023-03-29T05:05:56.220Z,45.35
2023-03-29T05:08:24.395Z,44.90
2023-03-29T05:11:10.393Z,43.60
2023-03-29T05:13:38.652Z,43.24
2023-03-29T05:16:08.081Z,43.33
2023-03-29T05:18:37.172Z,43.01
2023-03-29T05:21:06.552Z,43.28
2023-03-29T05:23:35.424Z,43.19
2023-03-29T05:26:09.932Z,42.17
2023-03-29T05:28:38.845Z,41.77
2023-03-29T05:31:08.700Z,41.98
2023-03-29T05:33:38.673Z,41.07
2023-03-29T05:36:11.234Z,40.87
2023-03-29T05:38:45.201Z,40.83
2023-03-29T05:41:16.026Z,40.75
2023-03-29T05:44:02.986Z,40.94
2023-03-29T05:46:31.687Z,40.04
2023-03-29T05:49:02.625Z,40.57
2023-03-29T05:51:57.008Z,41.35
2023-03-29T05:54:26.459Z,41.39
2023-03-29T05:56:54.831Z,42.41
2023-03-29T05:59:24.565Z,41.61
2023-03-29T06:01:53.045Z,42.13
2023-03-29T06:04:22.592Z,43.46
2023-03-29T06:07:12.749Z,45.23
2023-03-29T06:09:42.175Z,46.49
2023-03-29T06:12:10.794Z,47.54
2023-03-29T06:14:51.220Z,48.51
2023-03-29T06:17:29.359Z,49.34
2023-03-29T06:19:58.120Z,49.01
2023-03-29T06:22:27.932Z,48.72
2023-03-29T06:24:56.731Z,48.21
2023-03-29T06:27:28.131Z,48.70
2023-03-29T06:29:56.949Z,46.61
2023-03-29T06:32:25.924Z,46.69
2023-03-29T06:35:02.720Z,47.17
2023-03-29T06:37:33.958Z,47.61
2023-03-29T06:40:31.399Z,48.32
2023-03-29T06:43:00.057Z,45.77
2023-03-29T06:46:04.651Z,45.16
2023-03-29T06:48:43.426Z,46.21
2023-03-29T06:51:11.768Z,43.89
2023-03-29T06:53:41.156Z,44.52
2023-03-29T06:56:09.896Z,44.37
2023-03-29T06:58:45.230Z,41.62
2023-03-29T07:01:34.997Z,39.69
2023-03-29T07:04:17.823Z,37.27
2023-03-29T07:07:07.852Z,36.62
2023-03-29T07:09:40.024Z,36.08
2023-03-29T07:12:41.063Z,35.97
2023-03-29T07:15:09.968Z,36.05
2023-03-29T07:18:08.475Z,36.91
2023-03-29T07:20:39.055Z,36.36
2023-03-29T07:23:11.908Z,35.73
2023-03-29T07:25:41.103Z,35.34
2023-03-29T07:28:09.415Z,36.10
2023-03-29T07:30:37.656Z,34.77
2023-03-29T07:33:13.464Z,35.46
2023-03-29T07:35:49.423Z,35.87
2023-03-29T07:38:18.702Z,34.51
2023-03-29T07:40:54.658Z,35.33
2023-03-29T07:43:31.597Z,35.44
2023-03-29T07:46:05.309Z,34.67
2023-03-29T07:48:37.225Z,33.14
2023-03-29T07:51:16.497Z,33.33
2023-03-29T07:53:53.328Z,33.71
2023-03-29T07:56:47.727Z,33.53
2023-03-29T07:59:28.738Z,32.71
2023-03-29T08:02:06.791Z,32.58
2023-03-29T08:04:41.308Z,31.40
2023-03-29T08:07:21.769Z,31.94
2023-03-29T08:10:10.456Z,34.03
2023-03-29T08:12:53.934Z,34.78
2023-03-29T08:15:28.211Z,36.05
2023-03-29T08:17:56.883Z,36.79
2023-03-29T08:20:28.233Z,37.21
2023-03-29T08:22:59.403Z,36.82
2023-03-29T08:25:47.256Z,36.49
2023-03-29T08:28:17.069Z,34.56
2023-03-29T08:30:48.345Z,34.64
2023-03-29T08:33:17.192Z,34.94
2023-03-29T08:35:46.533Z,35.84
2023-03-29T08:38:22.784Z,35.97
2023-03-29T08:40:51.329Z,35.25
2023-03-29T08:43:20.497Z,35.41
2023-03-29T08:46:37.313Z,34.44
2023-03-29T08:49:20.061Z,34.49
2023-03-29T08:51:54.264Z,34.86
2023-03-29T08:54:29.294Z,35.65
2023-03-29T08:57:31.880Z,36.16
2023-03-29T09:00:13.415Z,36.69
2023-03-29T09:02:43.922Z,36.53
2023-03-29T09:05:25.921Z,36.19
2023-03-29T09:08:13.840Z,35.97
2023-03-29T09:11:01.010Z,36.62
2023-03-29T09:13:43.143Z,36.05
2023-03-29T09:16:20.552Z,36.18
2023-03-29T09:18:51.468Z,35.88
2023-03-29T09:21:49.856Z,35.71
2023-03-29T09:24:44.556Z,35.73
2023-03-29T09:27:23.169Z,37.14
2023-03-29T09:30:00.749Z,37.08
2023-03-29T09:32:53.880Z,36.80
2023-03-29T09:35:36.016Z,35.50
2023-03-29T09:38:09.534Z,34.61
2023-03-29T09:40:53.440Z,33.59
2023-03-29T09:43:36.358Z,33.83
2023-03-29T09:46:17.001Z,33.66
2023-03-29T09:48:46.579Z,32.95
2023-03-29T09:51:16.547Z,33.55
2023-03-29T09:53:45.337Z,33.54
2023-03-29T09:56:19.751Z,32.31
2023-03-29T09:58:51.508Z,32.43
2023-03-29T10:01:20.488Z,31.61
2023-03-29T10:03:54.345Z,31.68
2023-03-29T10:06:26.997Z,31.81
2023-03-29T10:08:59.512Z,32.03
2023-03-29T10:11:37.065Z,31.94
2023-03-29T10:14:13.657Z,31.72
2023-03-29T10:16:47.710Z,32.35
2023-03-29T10:19:35.878Z,32.21
2023-03-29T10:22:16.535Z,32.49
2023-03-29T10:24:51.480Z,32.28
2023-03-29T10:27:24.236Z,31.39
2023-03-29T10:29:54.353Z,32.34
2023-03-29T10:32:23.203Z,33.53
2023-03-29T10:34:52.284Z,33.89
2023-03-29T10:37:23.262Z,34.04
2023-03-29T10:39:52.125Z,34.31
2023-03-29T10:42:24.396Z,33.78
2023-03-29T10:44:55.537Z,32.94
2023-03-29T10:47:24.883Z,33.06
2023-03-29T10:49:57.073Z,33.49
2023-03-29T10:52:26.135Z,32.49
2023-03-29T10:54:56.525Z,31.99
2023-03-29T10:57:45.173Z,32.20
2023-03-29T11:00:18.941Z,33.21
2023-03-29T11:03:06.445Z,32.64
2023-03-29T11:05:43.259Z,32.18
2023-03-29T11:08:15.196Z,32.34
2023-03-29T11:10:55.660Z,32.47
2023-03-29T11:13:51.778Z,31.48
2023-03-29T11:16:59.707Z,31.38
2023-03-29T11:20:00.266Z,31.36
2023-03-29T11:22:56.751Z,30.84
2023-03-29T11:25:59.328Z,30.69
2023-03-29T11:28:28.733Z,30.99
2023-03-29T11:31:17.501Z,30.65
2023-03-29T11:34:19.248Z,30.84
2023-03-29T11:36:50.672Z,30.89
2023-03-29T11:39:36.998Z,31.62
2023-03-29T11:42:17.861Z,30.17
2023-03-29T11:44:48.594Z,30.59
2023-03-29T11:47:23.187Z,30.65
2023-03-29T11:49:57.599Z,31.09
2023-03-29T11:52:32.843Z,31.09
2023-03-29T11:55:05.276Z,31.03
2023-03-29T11:57:56.767Z,30.85
2023-03-29T12:00:31.002Z,31.50
2023-03-29T12:03:07.697Z,31.84
2023-03-29T12:06:04.517Z,32.08
2023-03-29T12:08:42.389Z,31.62
2023-03-29T12:11:29.420Z,30.99
2023-03-29T12:14:15.708Z,31.36
2023-03-29T12:16:57.315Z,31.35
2023-03-29T12:19:31.674Z,31.29
2023-03-29T12:22:01.739Z,31.04
2023-03-29T12:24:32.684Z,31.99
2023-03-29T12:27:22.508Z,31.87
2023-03-29T12:30:18.407Z,31.88
2023-03-29T12:32:56.264Z,31.96
2023-03-29T12:35:53.309Z,32.42
2023-03-29T12:38:57.161Z,31.83
2023-03-29T12:41:48.860Z,31.81
2023-03-29T12:45:00.362Z,32.12
2023-03-29T12:47:45.761Z,31.78
2023-03-29T12:50:28.655Z,31.34
2023-03-29T12:53:15.095Z,31.29
2023-03-29T12:55:43.677Z,31.69
2023-03-29T12:58:30.807Z,31.66
2023-03-29T13:01:31.567Z,31.68
2023-03-29T13:03:59.613Z,32.14
2023-03-29T13:06:27.579Z,32.29
2023-03-29T13:09:20.792Z,32.72
2023-03-29T13:12:15.942Z,32.26
2023-03-29T13:14:49.959Z,31.24
2023-03-29T13:17:52.911Z,31.66
2023-03-29T13:20:30.257Z,32.13
2023-03-29T13:23:14.577Z,32.10
2023-03-29T13:26:03.057Z,31.54
2023-03-29T13:28:57.943Z,31.56
2023-03-29T13:31:26.800Z,31.44
2023-03-29T13:34:17.871Z,30.74
2023-03-29T13:36:53.756Z,31.61
2023-03-29T13:39:24.686Z,30.75
2023-03-29T13:41:54.653Z,31.32
2023-03-29T13:44:22.728Z,31.56
2023-03-29T13:47:22.041Z,31.66
2023-03-29T13:49:53.603Z,31.29
2023-03-29T13:52:50.034Z,32.75
2023-03-29T13:55:24.669Z,31.97
2023-03-29T13:58:15.964Z,31.50
2023-03-29T14:00:54.306Z,31.98
2023-03-29T14:03:29.832Z,31.16
2023-03-29T14:06:01.265Z,31.01
2023-03-29T14:08:34.720Z,30.82
2023-03-29T14:11:07.045Z,31.07
2023-03-29T14:13:35.622Z,31.39
2023-03-29T14:16:09.196Z,30.27
2023-03-29T14:18:41.288Z,30.68
2023-03-29T14:21:12.681Z,30.48
2023-03-29T14:23:44.998Z,30.37
2023-03-29T14:26:19.730Z,30.43
2023-03-29T14:28:49.643Z,30.49
2023-03-29T14:31:23.778Z,30.72
2023-03-29T14:33:53.766Z,29.97
2023-03-29T14:36:23.367Z,29.69
2023-03-29T14:38:59.621Z,29.37
2023-03-29T14:41:32.621Z,30.04
2023-03-29T14:44:03.047Z,30.27
2023-03-29T14:46:31.828Z,30.69
2023-03-29T14:49:02.264Z,30.06
2023-03-29T14:51:31.364Z,30.81
2023-03-29T14:54:03.292Z,30.25
2023-03-29T14:56:33.135Z,29.78
2023-03-29T14:59:04.169Z,29.46
2023-03-29T15:01:32.495Z,30.59
2023-03-29T15:04:09.276Z,30.79
2023-03-29T15:06:44.079Z,31.56
2023-03-29T15:09:25.117Z,30.80
2023-03-29T15:11:58.753Z,30.62
2023-03-29T15:14:33.878Z,30.63
2023-03-29T15:17:22.874Z,31.31
2023-03-29T15:19:59.477Z,32.19
2023-03-29T15:22:34.619Z,32.63
2023-03-29T15:25:03.350Z,32.34
2023-03-29T15:27:44.440Z,32.05
2023-03-29T15:30:18.270Z,32.33
2023-03-29T15:32:46.646Z,33.31
2023-03-29T15:35:25.987Z,33.12
2023-03-29T15:37:54.227Z,33.44
2023-03-29T15:40:28.254Z,34.02
2023-03-29T15:42:56.910Z,35.01
2023-03-29T15:45:26.082Z,34.42
2023-03-29T15:47:54.403Z,34.27
2023-03-29T15:50:23.463Z,36.21
2023-03-29T15:52:52.907Z,35.33
2023-03-29T15:55:21.179Z,35.37
2023-03-29T15:57:52.869Z,35.30
2023-03-29T16:00:22.493Z,36.07
2023-03-29T16:02:51.646Z,35.94
2023-03-29T16:05:20.055Z,36.32
2023-03-29T16:07:48.408Z,36.41
2023-03-29T16:10:16.698Z,36.40
2023-03-29T16:12:44.783Z,37.28
2023-03-29T16:15:20.538Z,36.76
2023-03-29T16:17:48.818Z,36.43
2023-03-29T16:20:20.179Z,36.41
2023-03-29T16:22:49.234Z,36.47
2023-03-29T16:25:22.839Z,36.83
2023-03-29T16:27:55.639Z,37.06
2023-03-29T16:30:24.946Z,37.32
2023-03-29T16:32:53.232Z,37.79
2023-03-29T16:35:33.270Z,37.54
2023-03-29T16:38:01.630Z,39.29
2023-03-29T16:40:29.826Z,37.93
2023-03-29T16:42:58.073Z,38.38
2023-03-29T16:45:28.694Z,37.49
2023-03-29T16:47:57.319Z,38.11
2023-03-29T16:50:25.754Z,36.86
2023-03-29T16:52:54.239Z,37.07
2023-03-29T16:55:22.975Z,37.65
2023-03-29T16:57:51.214Z,36.43
2023-03-29T17:00:20.452Z,35.88
2023-03-29T17:02:51.762Z,35.38
2023-03-29T17:05:20.123Z,35.28
2023-03-29T17:07:48.253Z,35.18
2023-03-29T17:10:16.641Z,35.51
2023-03-29T17:12:45.092Z,35.23
2023-03-29T17:15:13.215Z,35.51
2023-03-29T17:17:41.661Z,36.01
2023-03-29T17:20:14.422Z,35.03
2023-03-29T17:22:42.646Z,35.42
2023-03-29T17:25:10.938Z,35.06
2023-03-29T17:27:39.052Z,35.34
2023-03-29T17:30:10.621Z,36.11
2023-03-29T17:32:40.231Z,36.54
2023-03-29T17:35:13.630Z,36.11
2023-03-29T17:37:42.666Z,36.42
2023-03-29T17:40:14.043Z,36.68
2023-03-29T17:42:43.991Z,37.29
2023-03-29T17:45:12.136Z,36.87
2023-03-29T17:47:40.957Z,37.31
2023-03-29T17:50:11.497Z,37.12
2023-03-29T17:52:40.178Z,36.73
2023-03-29T17:55:11.435Z,37.33
2023-03-29T17:57:40.836Z,36.78
2023-03-29T18:00:10.765Z,36.61
2023-03-29T18:02:39.904Z,36.88
2023-03-29T18:05:09.646Z,37.39
2023-03-29T18:07:38.412Z,37.66
2023-03-29T18:10:07.850Z,36.59
2023-03-29T18:12:36.762Z,36.02
2023-03-29T18:15:06.395Z,35.24
2023-03-29T18:17:36.550Z,35.10
2023-03-29T18:20:11.837Z,35.25
2023-03-29T18:22:43.922Z,35.33
2023-03-29T18:25:12.160Z,35.46
2023-03-29T18:27:41.019Z,36.10
2023-03-29T18:30:09.929Z,35.24
2023-03-29T18:32:38.325Z,34.80
2023-03-29T18:35:10.258Z,35.84
2023-03-29T18:37:38.956Z,35.44
2023-03-29T18:40:08.396Z,35.88
2023-03-29T18:42:36.739Z,37.58
2023-03-29T18:45:05.811Z,35.76
2023-03-29T18:47:33.913Z,35.55
2023-03-29T18:50:02.972Z,36.49
2023-03-29T18:52:31.224Z,36.82
2023-03-29T18:54:59.322Z,37.07
2023-03-29T18:57:28.139Z,37.22
2023-03-29T18:59:56.686Z,36.74
2023-03-29T19:02:27.373Z,37.37
2023-03-29T19:04:57.286Z,37.97
2023-03-29T19:07:25.641Z,37.81
2023-03-29T19:09:53.698Z,36.92
2023-03-29T19:12:24.627Z,38.28
2023-03-29T19:14:52.859Z,37.38
2023-03-29T19:17:21.802Z,37.56
2023-03-29T19:19:49.956Z,38.79
2023-03-29T19:22:18.142Z,38.25
2023-03-29T19:24:46.402Z,38.68
2023-03-29T19:27:14.796Z,39.70
2023-03-29T19:29:42.854Z,40.31
2023-03-29T19:32:11.192Z,40.48
2023-03-29T19:34:39.287Z,41.42
2023-03-29T19:37:07.336Z,41.76
2023-03-29T19:39:36.186Z,41.19
2023-03-29T19:42:04.422Z,40.10
2023-03-29T19:44:33.822Z,40.45
2023-03-29T19:47:02.165Z,40.40
2023-03-29T19:49:30.680Z,39.94
2023-03-29T19:51:59.272Z,39.81
2023-03-29T19:54:27.334Z,40.19
2023-03-29T19:56:57.416Z,40.19
2023-03-29T19:59:27.223Z,40.64
2023-03-29T20:01:57.102Z,40.74
2023-03-29T20:04:25.499Z,39.77
2023-03-29T20:06:53.617Z,40.68
2023-03-29T20:09:22.000Z,40.74
2023-03-29T20:11:50.682Z,40.45
2023-03-29T20:14:18.954Z,39.33
2023-03-29T20:16:47.110Z,39.49
2023-03-29T20:19:17.710Z,38.36
2023-03-29T20:21:45.907Z,39.19
2023-03-29T20:24:14.331Z,39.53
2023-03-29T20:26:42.503Z,39.09
2023-03-29T20:29:10.541Z,39.11
2023-03-29T20:31:38.677Z,39.42
2023-03-29T20:34:07.267Z,40.17
2023-03-29T20:36:35.827Z,40.42
2023-03-29T20:39:04.990Z,39.55
2023-03-29T20:41:33.982Z,39.47
2023-03-29T20:44:03.026Z,39.48
2023-03-29T20:46:35.045Z,39.69
2023-03-29T20:49:07.402Z,39.41
2023-03-29T20:51:36.331Z,38.86
2023-03-29T20:54:07.844Z,39.21
2023-03-29T20:56:39.827Z,39.13
2023-03-29T20:59:10.869Z,39.07
2023-03-29T21:01:41.194Z,37.81
2023-03-29T21:04:11.065Z,37.68
2023-03-29T21:06:39.803Z,37.59
2023-03-29T21:09:08.705Z,37.56
2023-03-29T21:11:36.935Z,37.19
2023-03-29T21:14:04.992Z,38.05
2023-03-29T21:16:33.296Z,38.88
2023-03-29T21:19:01.593Z,39.27
2023-03-29T21:21:29.754Z,40.23
2023-03-29T21:23:57.902Z,40.62
2023-03-29T21:26:26.580Z,39.50
2023-03-29T21:28:54.779Z,40.21
2023-03-29T21:31:22.895Z,39.69
2023-03-29T21:33:53.031Z,38.99
2023-03-29T21:36:21.143Z,38.71
2023-03-29T21:38:50.317Z,39.31
2023-03-29T21:41:19.200Z,40.25
2023-03-29T21:43:47.371Z,40.32
2023-03-29T21:46:15.726Z,41.83
2023-03-29T21:48:44.052Z,43.56
2023-03-29T21:51:12.197Z,42.56
2023-03-29T21:53:40.481Z,41.60
2023-03-29T21:56:12.209Z,41.32
2023-03-29T21:58:40.613Z,41.78
2023-03-29T22:01:10.522Z,42.02
2023-03-29T22:03:39.009Z,41.42
2023-03-29T22:06:09.512Z,40.63
2023-03-29T22:08:40.527Z,40.77
2023-03-29T22:11:14.074Z,40.86
2023-03-29T22:13:43.496Z,40.92
2023-03-29T22:16:18.360Z,40.92
2023-03-29T22:18:49.757Z,41.53
2023-03-29T22:21:25.233Z,41.84
2023-03-29T22:23:56.064Z,41.85
2023-03-29T22:26:27.847Z,41.86
2023-03-29T22:28:57.486Z,41.85
2023-03-29T22:31:27.400Z,41.75
2023-03-29T22:33:56.498Z,42.07
2023-03-29T22:36:27.821Z,41.92
2023-03-29T22:38:56.367Z,42.24
2023-03-29T22:41:27.740Z,42.16
2023-03-29T22:43:58.093Z,41.84
2023-03-29T22:46:27.346Z,41.88
2023-03-29T22:48:55.878Z,41.39
2023-03-29T22:51:24.014Z,41.10
2023-03-29T22:53:52.082Z,41.88
2023-03-29T22:56:20.552Z,41.61
2023-03-29T22:58:48.654Z,41.99
2023-03-29T23:01:17.006Z,42.15
2023-03-29T23:03:45.625Z,42.14
2023-03-29T23:06:13.711Z,42.82
2023-03-29T23:08:41.900Z,43.18
2023-03-29T23:11:10.221Z,41.16
2023-03-29T23:13:38.887Z,41.20
2023-03-29T23:16:07.882Z,41.00
2023-03-29T23:18:37.660Z,40.32
2023-03-29T23:21:09.066Z,40.23
2023-03-29T23:23:37.590Z,39.86
2023-03-29T23:26:06.589Z,40.42
2023-03-29T23:28:35.448Z,41.36
2023-03-29T23:31:10.378Z,40.87
2023-03-29T23:33:41.323Z,40.38
2023-03-29T23:36:12.817Z,40.55
2023-03-29T23:38:42.483Z,40.17
2023-03-29T23:41:12.946Z,40.79
2023-03-29T23:43:43.468Z,41.94
2023-03-29T23:46:15.283Z,43.13
2023-03-29T23:48:49.220Z,43.50
2023-03-29T23:51:23.045Z,42.64
2023-03-29T23:53:52.014Z,42.79
2023-03-29T23:56:21.736Z,43.64
2023-03-29T23:58:50.169Z,43.91
